Mc Shan, Alabama
Current Conditions -  °F | °C
As of 12:58 PM on Tuesday 21 Oct 2014 (Local Time) from KCBM Reporting Station
Clear Clear  
Wind Chill: 75°   Ceiling: Unl
Heat Index: 75°   Visibility: 10mi
Dew Point: 58°   Wind: 6mph
Humidity: 55%   Direction: 320°NW
Pressure: 30.05"   Gusts: NA
Location:  33.3788°N, 88.1443°W
Report Text: KCBM 211758Z AUTO 32005KT 10SM CLR 24/14 A3005 RMK AO2 SLP178 60000 T02400144 10240 20072 57016 $
Loading
Personal Weather Stations






























Interactive Weather Map
Tropical Storm Tracking
New forecast layout! Learn more

10-Day Weather Forecast

Advertisements
Track Severe Weather on mobile